Latest Weather Observations for Sydney Harbour

IDN60801

Issued at 12:05 pm EST Tuesday 29 July 2014 (issued every 30 minutes, with the page automatically refreshed every 10 minutes)

About weather observations | Map of weather stations | Latest weather observations for NSW | Other Formats
Station Details ID: 066196 Name: WEDDING CAKE WEST Lat: -33.84 Lon: 151.26 Height: 6.0 m
Data from the previous 72 hours. | See also: Recent months for locations in New South Wales
Date/Time
EST
Temp
°C
App
Temp
°C
Dew
Point
Rel
Hum
%
Delta-T
°C
Wind Press
QNH
hPa
Press
MSL
hPa
Rain
since 9 am
mm
Dir
 
Spd
km/h
Gust
km/h
Spd
kts
Gust
kts
29/12:00pm 18.4 - - - - N 24 35 13 19 - - -
29/11:30am 18.0 - - - - N 28 44 15 24 - - -
29/11:00am 17.2 - - - - NNW 24 35 13 19 - - -
29/10:30am 17.2 - - - - NNW 26 41 14 22 - - -
29/10:00am 17.2 - - - - N 20 30 11 16 - - -
29/09:30am 16.9 - - - - WNW 30 43 16 23 - - -
29/09:00am 15.7 - - - - NW 17 30 9 16 - - -
29/08:30am 14.7 - - - - N 24 32 13 17 - - -
29/08:00am 14.5 - - - - N 24 32 13 17 - - -
29/07:30am 14.5 - - - - N 24 30 13 16 - - -
29/07:00am 14.5 - - - - NNW 22 33 12 18 - - -
29/06:30am 14.7 - - - - NW 22 30 12 16 - - -
29/06:00am 14.9 - - - - NW 22 33 12 18 - - -
29/05:30am 14.6 - - - - NNW 17 22 9 12 - - -
29/05:00am 15.0 - - - - NNW 19 28 10 15 - - -
29/04:30am 14.7 - - - - NW 15 32 8 17 - - -
29/04:00am 14.7 - - - - NW 22 32 12 17 - - -
29/03:30am 14.6 - - - - NW 22 35 12 19 - - -
29/03:00am 14.5 - - - - NW 20 30 11 16 - - -
29/02:30am 14.2 - - - - NNW 17 22 9 12 - - -
29/02:00am 14.1 - - - - NNW 20 32 11 17 - - -
29/01:30am 14.0 - - - - N 11 15 6 8 - - -
29/01:00am 14.0 - - - - N 19 20 10 11 - - -
29/12:30am 14.3 - - - - N 17 22 9 12 - - -
29/12:00am 14.5 - - - - N 20 24 11 13 - - -
 
Date/Time
EST
Temp
°C
App
Temp
°C
Dew
Point
Rel
Hum
%
Delta-T
°C
Wind Press
QNH
hPa
Press
MSL
hPa
Rain
since 9 am
mm
Dir
 
Spd
km/h
Gust
km/h
Spd
kts
Gust
kts
28/11:30pm 14.5 - - - - NNW 19 24 10 13 - - -
28/11:00pm 14.6 - - - - NNW 19 24 10 13 - - -
28/10:30pm 15.3 - - - - NW 11 20 6 11 - - -
28/10:00pm 15.4 - - - - W 13 17 7 9 - - -
28/09:30pm 15.8 - - - - NW 15 20 8 11 - - -
28/09:00pm 14.6 - - - - NW 6 13 3 7 - - -
28/08:30pm 15.5 - - - - NNW 4 9 2 5 - - -
28/08:00pm 16.0 - - - - NNW 13 15 7 8 - - -
28/07:30pm 16.3 - - - - NNW 13 15 7 8 - - -
28/07:00pm 16.3 - - - - NNW 11 13 6 7 - - -
28/06:30pm 16.6 - - - - NNW 11 11 6 6 - - -
28/06:00pm 16.5 - - - - NNW 11 11 6 6 - - -
28/05:30pm 16.5 - - - - NW 11 11 6 6 - - -
28/05:00pm 15.9 - - - - CALM 0 0 0 0 - - -
28/04:30pm 16.8 - - - - W 6 7 3 4 - - -
28/04:00pm 17.2 - - - - W 9 13 5 7 - - -
28/03:30pm 17.5 - - - - W 17 20 9 11 - - -
28/03:00pm 17.4 - - - - W 17 20 9 11 - - -
28/02:30pm 17.2 - - - - W 22 30 12 16 - - -
28/02:00pm 17.2 - - - - W 20 30 11 16 - - -
28/01:30pm 16.9 - - - - W 28 37 15 20 - - -
28/01:00pm 16.8 - - - - W 32 43 17 23 - - -
28/12:30pm 16.4 - - - - WSW 30 44 16 24 - - -
28/12:00pm 16.0 - - - - W 35 54 19 29 - - -
28/11:30am 15.8 - - - - WSW 30 48 16 26 - - -
28/11:29am 15.7 - - - - WSW 28 48 15 26 - - -
28/11:00am 15.5 - - - - W 24 35 13 19 - - -
28/10:30am 15.0 - - - - W 28 37 15 20 - - -
28/10:00am 14.7 - - - - W 26 33 14 18 - - -
28/09:30am 14.3 - - - - W 24 33 13 18 - - -
28/09:00am 13.9 - - - - W 22 32 12 17 - - -
28/08:30am 12.8 - - - - NW 9 13 5 7 - - -
28/08:00am 11.5 - - - - NW 11 15 6 8 - - -
28/07:30am 11.4 - - - - W 9 13 5 7 - - -
28/07:00am 11.4 - - - - W 19 24 10 13 - - -
28/06:30am 12.2 - - - - W 15 20 8 11 - - -
28/06:00am 12.0 - - - - W 22 28 12 15 - - -
28/05:30am 12.3 - - - - WNW 24 30 13 16 - - -
28/05:00am 12.2 - - - - W 20 22 11 12 - - -
28/04:30am 11.7 - - - - W 15 19 8 10 - - -
28/04:00am 11.7 - - - - W 17 20 9 11 - - -
28/03:30am 11.4 - - - - WSW 17 20 9 11 - - -
28/03:00am 11.8 - - - - W 24 32 13 17 - - -
28/02:30am 11.6 - - - - W 19 24 10 13 - - -
28/02:00am 11.5 - - - - W 13 15 7 8 - - -
28/01:30am 11.7 - - - - W 17 22 9 12 - - -
28/01:00am 12.3 - - - - WSW 19 24 10 13 - - -
28/12:30am 12.6 - - - - SW 9 13 5 7 - - -
28/12:00am 12.5 - - - - N 6 7 3 4 - - -
 
Date/Time
EST
Temp
°C
App
Temp
°C
Dew
Point
Rel
Hum
%
Delta-T
°C
Wind Press
QNH
hPa
Press
MSL
hPa
Rain
since 9 am
mm
Dir
 
Spd
km/h
Gust
km/h
Spd
kts
Gust
kts
27/11:30pm 12.7 - - - - N 2 7 1 4 - - -
27/11:00pm 13.5 - - - - N 6 7 3 4 - - -
27/10:30pm 13.0 - - - - N 4 7 2 4 - - -
27/10:00pm 14.2 - - - - N 7 11 4 6 - - -
27/09:30pm 14.2 - - - - CALM 0 0 0 0 - - -
27/09:00pm 14.3 - - - - SW 6 9 3 5 - - -
27/08:30pm 14.1 - - - - CALM 0 0 0 0 - - -
27/08:00pm 14.4 - - - - CALM 0 0 0 0 - - -
27/07:30pm 14.5 - - - - SW 6 9 3 5 - - -
27/07:00pm 14.5 - - - - SW 9 11 5 6 - - -
27/06:30pm 14.7 - - - - CALM 0 0 0 0 - - -
27/06:00pm 15.1 - - - - CALM 0 0 0 0 - - -
27/05:30pm 16.2 - - - - SE 6 7 3 4 - - -
27/05:00pm 16.4 - - - - SE 9 11 5 6 - - -
27/04:30pm 17.3 - - - - SE 15 19 8 10 - - -
27/04:00pm 17.5 - - - - SE 17 22 9 12 - - -
27/03:30pm 17.5 - - - - SSE 19 24 10 13 - - -
27/03:00pm 17.6 - - - - SSE 17 20 9 11 - - -
27/02:30pm 17.3 - - - - SSE 22 26 12 14 - - -
27/02:00pm 17.4 - - - - S 20 26 11 14 - - -
27/01:30pm 17.5 - - - - SSW 6 7 3 4 - - -
27/01:00pm 17.2 - - - - SSW 9 15 5 8 - - -
27/12:30pm 16.9 - - - - W 17 22 9 12 - - -
27/12:00pm 16.4 - - - - W 20 26 11 14 - - -
27/11:30am 15.8 - - - - W 20 28 11 15 - - -
27/11:00am 15.2 - - - - W 24 30 13 16 - - -
27/10:30am 14.6 - - - - WSW 26 33 14 18 - - -
27/10:00am 14.1 - - - - W 28 37 15 20 - - -
27/09:30am 13.2 - - - - W 26 32 14 17 - - -
27/09:00am 12.6 - - - - WSW 26 32 14 17 - - -
27/08:30am 12.5 - - - - WSW 26 33 14 18 - - -
27/08:00am 12.3 - - - - WSW 20 28 11 15 - - -
27/07:30am 12.3 - - - - W 24 30 13 16 - - -
27/07:00am 12.0 - - - - W 26 33 14 18 - - -
27/06:30am 12.2 - - - - W 20 28 11 15 - - -
27/06:00am 11.9 - - - - W 17 22 9 12 - - -
27/05:30am 12.1 - - - - WSW 19 22 10 12 - - -
27/05:00am 11.9 - - - - WSW 17 20 9 11 - - -
27/04:30am 12.0 - - - - WSW 20 26 11 14 - - -
27/04:00am 12.1 - - - - W 20 26 11 14 - - -
27/03:30am 12.2 - - - - WSW 22 28 12 15 - - -
27/03:00am 12.3 - - - - WSW 20 26 11 14 - - -
27/02:30am 12.4 - - - - WSW 19 26 10 14 - - -
27/02:00am 12.9 - - - - WSW 17 22 9 12 - - -
27/01:30am 12.7 - - - - WSW 19 22 10 12 - - -
27/01:00am 13.1 - - - - WSW 17 22 9 12 - - -
27/12:30am 13.5 - - - - WSW 19 22 10 12 - - -
27/12:00am 13.6 - - - - W 15 20 8 11 - - -
 
Date/Time
EST
Temp
°C
App
Temp
°C
Dew
Point
Rel
Hum
%
Delta-T
°C
Wind Press
QNH
hPa
Press
MSL
hPa
Rain
since 9 am
mm
Dir
 
Spd
km/h
Gust
km/h
Spd
kts
Gust
kts
26/11:30pm 13.8 - - - - WSW 17 20 9 11 - - -
26/11:00pm 13.9 - - - - WSW 13 19 7 10 - - -
26/10:30pm 14.1 - - - - WSW 13 17 7 9 - - -
26/10:00pm 14.5 - - - - WSW 13 17 7 9 - - -
26/09:30pm 15.1 - - - - W 19 24 10 13 - - -
26/09:00pm 15.6 - - - - W 22 28 12 15 - - -
26/08:30pm 15.2 - - - - W 20 28 11 15 - - -
26/08:00pm 15.6 - - - - W 19 24 10 13 - - -
26/07:30pm 16.2 - - - - W 17 19 9 10 - - -
26/07:00pm 16.1 - - - - W 9 17 5 9 - - -
26/06:30pm 15.4 - - - - WNW 6 7 3 4 - - -
26/06:00pm 16.5 - - - - NW 15 19 8 10 - - -
26/05:30pm 16.9 - - - - NW 13 17 7 9 - - -
26/05:00pm 16.7 - - - - WNW 11 15 6 8 - - -
26/04:30pm 17.2 - - - - W 6 7 3 4 - - -
26/04:00pm 17.5 - - - - W 9 11 5 6 - - -
26/03:30pm 17.5 - - - - W 17 20 9 11 - - -
26/03:00pm 17.2 - - - - NW 24 30 13 16 - - -
26/02:30pm 16.7 - - - - SW 7 9 4 5 - - -
26/02:00pm 16.4 - - - - CALM 0 6 0 3 - - -
26/01:30pm 14.3 - - - - SW 11 13 6 7 - - -
26/01:00pm 13.6 - - - - WSW 13 13 7 7 - - -
26/12:30pm 13.4 - - - - WSW 11 15 6 8 - - -

Other Formats:

Comma delimited format used in spreadsheet applications
http://www.bom.gov.au/fwo/IDN60801/IDN60801.95766.axf

JavaScript Object Notation format (JSON) in row-major order
http://www.bom.gov.au/fwo/IDN60801/IDN60801.95766.json